NJE791Q EDDF-LFMD
Flight info
| Callsign | NJE791Q |
|---|---|
| Flight time | N/A |
| Altitude | 35000 |
| Route | ANEKI2L ANEKI Y163 NATOR DCT TRA DCT RIPUS DCT GERSA DCT SOSON DCT ODINA DCT ENOBA Z185 ASBOP Z185 BORDI |
| Aircraft | CL60/M-SBDE1E2E3FGHIJ1J4J5J7M3RWXYZ/LB1V1D1 |
Departure
| Time | 2026-04-17 05:32 |
|---|---|
| Airport | Frankfurt Main Airport (EDDF) |
Arrival
| Time | N/A |
|---|---|
| Airport | Cannes Mandelieu Airport (LFMD) |
| Time | Latitude | Longitude | Altitude | Speed | Heading |
|---|---|---|---|---|---|
| 2026-04-17 04:59 | 50.02286 | 8.53247 | 348 ft | 0 kts | 340° |
| 2026-04-17 05:25 | 50.02288 | 8.53235 | 348 ft | 2 kts | 248° |
| 2026-04-17 05:26 | 50.02251 | 8.53217 | 348 ft | 8 kts | 195° |
| 2026-04-17 05:26 | 50.02202 | 8.53169 | 348 ft | 8 kts | 225° |
| 2026-04-17 05:26 | 50.02166 | 8.53077 | 348 ft | 11 kts | 248° |
| 2026-04-17 05:26 | 50.02148 | 8.52976 | 348 ft | 10 kts | 262° |
| 2026-04-17 05:27 | 50.02146 | 8.52875 | 348 ft | 9 kts | 284° |
| 2026-04-17 05:27 | 50.02184 | 8.52833 | 348 ft | 8 kts | 357° |
| 2026-04-17 05:27 | 50.02257 | 8.52833 | 348 ft | 12 kts | 0° |
| 2026-04-17 05:27 | 50.02354 | 8.52833 | 348 ft | 15 kts | 0° |
| 2026-04-17 05:28 | 50.02473 | 8.52832 | 348 ft | 18 kts | 360° |
| 2026-04-17 05:28 | 50.02589 | 8.52829 | 348 ft | 18 kts | 359° |
| 2026-04-17 05:28 | 50.02726 | 8.52828 | 348 ft | 20 kts | 0° |
| 2026-04-17 05:28 | 50.02854 | 8.52826 | 348 ft | 14 kts | 360° |
| 2026-04-17 05:29 | 50.02964 | 8.52824 | 348 ft | 17 kts | 359° |
| 2026-04-17 05:29 | 50.03095 | 8.52824 | 347 ft | 20 kts | 360° |
| 2026-04-17 05:29 | 50.03220 | 8.52821 | 347 ft | 13 kts | 0° |
| 2026-04-17 05:29 | 50.03283 | 8.52796 | 347 ft | 10 kts | 292° |
| 2026-04-17 05:30 | 50.03272 | 8.52698 | 347 ft | 9 kts | 255° |
| 2026-04-17 05:30 | 50.03268 | 8.52633 | 347 ft | 0 kts | 269° |
| 2026-04-17 05:30 | 50.03264 | 8.52610 | 347 ft | 4 kts | 226° |
| 2026-04-17 05:30 | 50.03244 | 8.52604 | 347 ft | 2 kts | 177° |
| 2026-04-17 05:31 | 50.03243 | 8.52604 | 347 ft | 0 kts | 177° |
| 2026-04-17 05:31 | 50.03229 | 8.52605 | 347 ft | 16 kts | 179° |
| 2026-04-17 05:32 | 50.02748 | 8.52610 | 348 ft | 116 kts | 180° |
| 2026-04-17 05:32 | 50.01743 | 8.52629 | 663 ft | 159 kts | 179° |
| 2026-04-17 05:32 | 50.00604 | 8.52672 | 1451 ft | 174 kts | 178° |
| 2026-04-17 05:32 | 49.99272 | 8.52773 | 2072 ft | 206 kts | 176° |
| 2026-04-17 05:33 | 49.97795 | 8.52897 | 2928 ft | 222 kts | 177° |
| 2026-04-17 05:33 | 49.96230 | 8.52971 | 3831 ft | 227 kts | 178° |
| 2026-04-17 05:33 | 49.94649 | 8.53045 | 4749 ft | 230 kts | 177° |
| 2026-04-17 05:33 | 49.93044 | 8.53121 | 5646 ft | 235 kts | 178° |
| 2026-04-17 05:34 | 49.91438 | 8.53226 | 6557 ft | 237 kts | 176° |
| 2026-04-17 05:34 | 49.89764 | 8.53345 | 7442 ft | 242 kts | 179° |
| 2026-04-17 05:34 | 49.88081 | 8.53424 | 8359 ft | 246 kts | 179° |
| 2026-04-17 05:34 | 49.86371 | 8.53538 | 9342 ft | 249 kts | 179° |
| 2026-04-17 05:35 | 49.84648 | 8.53659 | 10326 ft | 254 kts | 179° |
| 2026-04-17 05:35 | 49.82879 | 8.53781 | 11323 ft | 259 kts | 179° |
| 2026-04-17 05:35 | 49.81086 | 8.53903 | 12320 ft | 264 kts | 180° |
| 2026-04-17 05:35 | 49.79245 | 8.54027 | 13331 ft | 270 kts | 180° |
| 2026-04-17 05:36 | 49.77359 | 8.54030 | 14372 ft | 275 kts | 186° |
| 2026-04-17 05:36 | 49.75425 | 8.53785 | 15400 ft | 284 kts | 188° |
| 2026-04-17 05:36 | 49.73363 | 8.53500 | 15732 ft | 320 kts | 187° |
| 2026-04-17 05:36 | 49.71015 | 8.53181 | 16106 ft | 350 kts | 187° |
| 2026-04-17 05:37 | 49.68547 | 8.52851 | 16888 ft | 364 kts | 187° |
| 2026-04-17 05:37 | 49.65968 | 8.52508 | 17848 ft | 371 kts | 187° |
| 2026-04-17 05:37 | 49.63395 | 8.52168 | 18809 ft | 377 kts | 187° |
| 2026-04-17 05:37 | 49.60748 | 8.51818 | 19715 ft | 382 kts | 187° |
| 2026-04-17 05:38 | 49.58099 | 8.51468 | 20553 ft | 388 kts | 187° |
| 2026-04-17 05:38 | 49.55368 | 8.51107 | 21395 ft | 394 kts | 188° |
| 2026-04-17 05:38 | 49.52652 | 8.50750 | 22192 ft | 399 kts | 188° |
| 2026-04-17 05:38 | 49.49857 | 8.50382 | 22968 ft | 404 kts | 188° |
| 2026-04-17 05:39 | 49.47036 | 8.50011 | 23715 ft | 409 kts | 188° |
| 2026-04-17 05:39 | 49.44200 | 8.49639 | 24456 ft | 414 kts | 188° |
| 2026-04-17 05:39 | 49.41290 | 8.49258 | 25201 ft | 418 kts | 188° |
| 2026-04-17 05:39 | 49.38391 | 8.48878 | 25924 ft | 423 kts | 188° |
| 2026-04-17 05:40 | 49.35424 | 8.48491 | 26639 ft | 426 kts | 188° |
| 2026-04-17 05:40 | 49.32451 | 8.48103 | 27293 ft | 430 kts | 188° |
| 2026-04-17 05:40 | 49.29459 | 8.47714 | 27902 ft | 434 kts | 188° |
| 2026-04-17 05:40 | 49.26427 | 8.47319 | 28474 ft | 438 kts | 189° |
| 2026-04-17 05:41 | 49.23403 | 8.46924 | 29063 ft | 441 kts | 189° |
| 2026-04-17 05:41 | 49.20344 | 8.46527 | 29751 ft | 441 kts | 189° |
| 2026-04-17 05:41 | 49.17303 | 8.46133 | 30516 ft | 438 kts | 189° |
| 2026-04-17 05:41 | 49.14277 | 8.45742 | 31242 ft | 435 kts | 189° |
| 2026-04-17 05:42 | 49.11247 | 8.45350 | 31926 ft | 434 kts | 189° |
| 2026-04-17 05:42 | 49.08248 | 8.44963 | 32558 ft | 432 kts | 189° |
| 2026-04-17 05:42 | 49.05291 | 8.44389 | 33145 ft | 427 kts | 196° |
| 2026-04-17 05:42 | 49.02417 | 8.43406 | 33687 ft | 425 kts | 198° |
| 2026-04-17 05:43 | 48.99522 | 8.42386 | 34215 ft | 424 kts | 198° |
| 2026-04-17 05:43 | 48.96672 | 8.41387 | 34671 ft | 425 kts | 198° |
| 2026-04-17 05:43 | 48.93785 | 8.40376 | 34950 ft | 428 kts | 198° |
| 2026-04-17 05:43 | 48.90868 | 8.39357 | 35172 ft | 433 kts | 198° |
| 2026-04-17 05:44 | 48.84845 | 8.37254 | 35204 ft | 451 kts | 198° |
| 2026-04-17 05:44 | 48.78639 | 8.35098 | 35201 ft | 455 kts | 198° |
| 2026-04-17 05:45 | 48.72473 | 8.32850 | 35202 ft | 454 kts | 197° |
| 2026-04-17 05:45 | 48.66369 | 8.30620 | 35199 ft | 453 kts | 197° |
| 2026-04-17 05:46 | 48.60210 | 8.28376 | 35196 ft | 453 kts | 198° |
| 2026-04-17 05:46 | 48.54092 | 8.26158 | 35208 ft | 453 kts | 197° |
| 2026-04-17 05:47 | 48.47749 | 8.25081 | 35218 ft | 461 kts | 182° |
| 2026-04-17 05:47 | 48.41336 | 8.26224 | 35215 ft | 465 kts | 174° |
| 2026-04-17 05:48 | 48.34945 | 8.27767 | 35217 ft | 465 kts | 174° |
| 2026-04-17 05:48 | 48.28560 | 8.29304 | 35215 ft | 465 kts | 174° |
| 2026-04-17 05:49 | 48.22191 | 8.30835 | 35215 ft | 464 kts | 174° |
| 2026-04-17 05:49 | 48.15784 | 8.32375 | 35216 ft | 465 kts | 174° |
| 2026-04-17 05:50 | 48.09375 | 8.33927 | 35220 ft | 465 kts | 174° |
| 2026-04-17 05:50 | 48.03005 | 8.35467 | 35220 ft | 465 kts | 174° |
| 2026-04-17 05:51 | 47.96607 | 8.37010 | 35223 ft | 465 kts | 173° |
| 2026-04-17 05:51 | 47.90236 | 8.38543 | 35223 ft | 465 kts | 173° |
| 2026-04-17 05:52 | 47.83835 | 8.40080 | 35221 ft | 464 kts | 173° |
| 2026-04-17 05:52 | 47.77434 | 8.41613 | 35212 ft | 465 kts | 173° |
| 2026-04-17 05:53 | 47.70996 | 8.43151 | 35210 ft | 465 kts | 173° |
| 2026-04-17 05:53 | 47.64560 | 8.44342 | 35202 ft | 463 kts | 177° |
| 2026-04-17 05:54 | 47.58173 | 8.45271 | 35200 ft | 463 kts | 177° |
| 2026-04-17 05:54 | 47.51787 | 8.46202 | 35204 ft | 463 kts | 177° |
| 2026-04-17 05:55 | 47.45364 | 8.47139 | 35205 ft | 464 kts | 177° |
| 2026-04-17 05:55 | 47.38948 | 8.48075 | 35204 ft | 463 kts | 177° |
| 2026-04-17 05:56 | 47.32498 | 8.49014 | 35202 ft | 463 kts | 177° |
| 2026-04-17 05:56 | 47.26099 | 8.49945 | 35196 ft | 463 kts | 176° |
| 2026-04-17 05:57 | 47.19682 | 8.50879 | 35189 ft | 463 kts | 176° |
| 2026-04-17 05:57 | 47.13254 | 8.51813 | 35189 ft | 463 kts | 176° |
| 2026-04-17 05:58 | 47.06817 | 8.52747 | 35177 ft | 463 kts | 176° |